Terminal Aerodrome Forecast
Issued by NWS Corpus Christi, TX

Home | Current Version | Previous Version | Text Only | Print | Product List | Glossary On
Versions: 1 2 3 4 5 6 7 8 9 10 11 12 13 14 15 16 17 18 19 20 21 22 23 24 25 26 27 28 29 30
000
FTUS44 KCRP 250538
TAFVCT
TAF
KVCT 250538Z 2506/2606 VRB06KT 5SM BR VCTS SCT022CB BKN028
     FM250800 VRB06KT 5SM BR SCT007 BKN014
      TEMPO 2510/2514 2SM BR BKN007 BKN014
     FM251600 16005KT 6SM BR SCT025 BKN035
     FM260200 17005KT 4SM BR BKN015=

USA.gov is the U.S. government's official web portal to all federal, state and local government web resources and services.